createdAt,value
2018-07-08T00:00:41.570Z,2.73
2018-07-08T00:05:45.030Z,2.73
2018-07-08T00:10:54.289Z,2.67
2018-07-08T00:15:57.695Z,2.30
2018-07-08T00:21:01.185Z,2.73
2018-07-08T00:26:04.653Z,3.17
2018-07-08T00:31:08.094Z,2.87
2018-07-08T00:36:11.470Z,3.20
2018-07-08T00:41:14.905Z,2.97
2018-07-08T00:46:18.117Z,3.23
2018-07-08T00:51:21.449Z,2.90
2018-07-08T00:56:24.827Z,2.87
2018-07-08T01:01:28.112Z,2.97
2018-07-08T01:06:31.510Z,3.00
2018-07-08T01:11:34.841Z,2.73
2018-07-08T01:16:38.193Z,3.17
2018-07-08T01:21:41.540Z,3.30
2018-07-08T01:26:45.153Z,3.20
2018-07-08T01:31:48.508Z,3.00
2018-07-08T01:36:51.864Z,3.60
2018-07-08T01:41:55.177Z,3.13
2018-07-08T01:46:58.517Z,3.63
2018-07-08T01:52:02.703Z,3.80
2018-07-08T01:57:06.132Z,3.40
2018-07-08T02:02:09.506Z,3.63
2018-07-08T02:07:13.360Z,3.40
2018-07-08T02:12:17.388Z,2.83
2018-07-08T02:17:20.837Z,4.17
2018-07-08T02:22:24.314Z,3.60
2018-07-08T02:27:27.812Z,3.00
2018-07-08T02:32:31.294Z,3.60
2018-07-08T02:37:34.736Z,3.80
2018-07-08T02:42:38.177Z,3.70
2018-07-08T02:47:41.673Z,3.60
2018-07-08T02:52:45.664Z,4.60
2018-07-08T02:57:49.037Z,4.87
2018-07-08T03:02:52.352Z,4.70
2018-07-08T03:07:55.712Z,5.17
2018-07-08T03:12:59.157Z,5.40
2018-07-08T03:18:02.537Z,6.10
2018-07-08T03:23:05.892Z,5.63
2018-07-08T03:28:09.265Z,5.40
2018-07-08T03:33:12.812Z,5.47
2018-07-08T03:38:16.209Z,5.47
2018-07-08T03:43:19.673Z,5.93
2018-07-08T03:48:23.032Z,5.20
2018-07-08T03:53:26.337Z,6.20
2018-07-08T03:58:29.721Z,5.67
2018-07-08T04:03:33.028Z,7.00
2018-07-08T04:08:36.435Z,5.73
2018-07-08T04:13:40.088Z,5.90
2018-07-08T04:18:43.469Z,5.33
2018-07-08T04:23:46.808Z,5.50
2018-07-08T04:28:50.201Z,5.17
2018-07-08T04:33:53.530Z,5.40
2018-07-08T04:38:56.844Z,6.10
2018-07-08T04:44:00.157Z,5.10
2018-07-08T04:49:03.601Z,4.90
2018-07-08T04:54:06.939Z,5.40
2018-07-08T04:59:10.300Z,4.70
2018-07-08T05:04:13.676Z,5.30
2018-07-08T05:09:16.821Z,5.00
2018-07-08T05:14:20.190Z,5.17
2018-07-08T05:19:23.504Z,4.40
2018-07-08T05:24:26.750Z,4.80
2018-07-08T05:29:30.033Z,4.90
2018-07-08T05:34:33.396Z,4.97
2018-07-08T05:39:36.824Z,4.27
2018-07-08T05:44:40.217Z,4.40
2018-07-08T05:49:43.561Z,3.93
2018-07-08T05:54:46.945Z,3.43
2018-07-08T05:59:50.325Z,3.70
2018-07-08T06:04:53.789Z,3.97
2018-07-08T06:09:57.110Z,3.60
2018-07-08T06:15:00.455Z,3.30
2018-07-08T06:20:05.481Z,3.60
2018-07-08T06:25:09.151Z,3.20
2018-07-08T06:30:12.581Z,2.77
2018-07-08T06:35:15.944Z,3.27
2018-07-08T06:40:19.350Z,3.07
2018-07-08T06:45:22.697Z,2.50
2018-07-08T06:50:25.995Z,2.37
2018-07-08T06:55:29.376Z,2.20
2018-07-08T07:00:32.747Z,2.33
2018-07-08T07:05:36.133Z,2.70
2018-07-08T07:10:39.471Z,2.73
2018-07-08T07:15:42.868Z,2.57
2018-07-08T07:20:46.214Z,2.60
2018-07-08T07:25:49.574Z,2.30
2018-07-08T07:30:52.972Z,1.70
2018-07-08T07:35:56.337Z,2.20
2018-07-08T07:40:59.740Z,2.00
2018-07-08T07:46:03.298Z,2.00
2018-07-08T07:51:06.774Z,1.73
2018-07-08T07:56:10.112Z,2.07
2018-07-08T08:01:13.513Z,1.80
2018-07-08T08:06:16.913Z,2.87
2018-07-08T08:11:20.288Z,2.47
2018-07-08T08:16:23.645Z,1.90
2018-07-08T08:21:27.013Z,1.80
2018-07-08T08:26:30.456Z,1.57
2018-07-08T08:31:33.721Z,1.90
2018-07-08T08:36:37.050Z,1.70
2018-07-08T08:41:40.372Z,1.83
2018-07-08T08:46:43.734Z,1.60
2018-07-08T08:51:47.096Z,1.40
2018-07-08T08:56:50.385Z,1.03
2018-07-08T09:01:53.713Z,1.57
2018-07-08T09:06:57.052Z,1.20
2018-07-08T09:12:00.423Z,1.37
2018-07-08T09:17:03.940Z,1.20
2018-07-08T09:22:08.180Z,1.00
2018-07-08T09:27:11.528Z,1.30
2018-07-08T09:32:14.877Z,1.30
2018-07-08T09:37:18.263Z,1.27
2018-07-08T09:42:21.661Z,1.60
2018-07-08T09:47:25.037Z,1.03
2018-07-08T09:52:28.396Z,1.30
2018-07-08T09:57:31.752Z,1.40
2018-07-08T10:02:35.076Z,1.10
2018-07-08T10:07:38.413Z,1.50
2018-07-08T10:12:41.746Z,1.00
2018-07-08T10:17:45.100Z,1.77
2018-07-08T10:22:48.441Z,0.80
2018-07-08T10:28:16.217Z,1.10
2018-07-08T10:33:19.600Z,1.23
2018-07-08T10:38:22.994Z,1.00
2018-07-08T10:43:26.404Z,1.10
2018-07-08T10:48:29.815Z,0.90
2018-07-08T10:53:33.189Z,1.40
2018-07-08T10:58:36.903Z,1.70
2018-07-08T11:03:40.256Z,1.30
2018-07-08T11:08:43.666Z,1.10
2018-07-08T11:13:47.021Z,1.40
2018-07-08T11:18:50.349Z,1.03
2018-07-08T11:23:53.732Z,1.30
2018-07-08T11:28:57.081Z,1.10
2018-07-08T11:34:00.416Z,1.50
2018-07-08T11:39:04.610Z,1.47
2018-07-08T11:44:07.949Z,1.07
2018-07-08T11:49:11.281Z,1.17
2018-07-08T11:54:15.010Z,1.20
2018-07-08T11:59:18.441Z,1.10
2018-07-08T12:04:21.881Z,0.87
2018-07-08T12:09:25.283Z,1.17
2018-07-08T12:14:29.114Z,0.97
2018-07-08T12:19:32.424Z,1.07
2018-07-08T12:24:35.789Z,1.00
2018-07-08T12:29:39.167Z,1.00
2018-07-08T12:34:42.651Z,1.10
2018-07-08T12:39:46.037Z,0.90
2018-07-08T12:44:49.447Z,1.40
2018-07-08T12:49:52.684Z,1.13
2018-07-08T12:54:56.052Z,1.23
2018-07-08T12:59:59.364Z,0.83
2018-07-08T13:05:02.717Z,1.00
2018-07-08T13:10:06.114Z,1.53
2018-07-08T13:15:11.773Z,1.10
2018-07-08T13:20:15.205Z,1.03
2018-07-08T13:25:18.558Z,0.90
2018-07-08T13:30:22.006Z,1.50
2018-07-08T13:35:25.341Z,0.97
2018-07-08T13:40:28.761Z,1.37
2018-07-08T13:45:32.153Z,1.00
2018-07-08T13:50:35.487Z,1.10
2018-07-08T13:55:39.164Z,1.03
2018-07-08T14:00:42.521Z,2.27
2018-07-08T14:05:45.952Z,1.00
2018-07-08T14:10:49.272Z,1.17
2018-07-08T14:15:52.580Z,1.20
2018-07-08T14:20:55.992Z,1.43
2018-07-08T14:25:59.440Z,1.00
2018-07-08T14:31:02.846Z,1.20
2018-07-08T14:36:06.244Z,1.20
2018-07-08T14:41:09.648Z,1.10
2018-07-08T14:46:13.030Z,1.07
2018-07-08T14:51:16.506Z,1.20
2018-07-08T14:56:19.796Z,1.33
2018-07-08T15:01:23.369Z,2.50
2018-07-08T15:06:26.741Z,1.63
2018-07-08T15:11:30.724Z,1.30
2018-07-08T15:16:34.077Z,1.37
2018-07-08T15:21:37.494Z,1.50
2018-07-08T15:26:40.835Z,1.10
2018-07-08T15:31:44.307Z,1.40
2018-07-08T15:36:47.752Z,1.10
2018-07-08T15:41:51.142Z,1.27
2018-07-08T15:46:54.641Z,1.40
2018-07-08T15:51:57.976Z,1.23
2018-07-08T15:57:01.289Z,1.20
2018-07-08T16:02:04.681Z,1.20
2018-07-08T16:07:08.028Z,1.20
2018-07-08T16:12:11.488Z,1.30
2018-07-08T16:17:14.633Z,1.07
2018-07-08T16:22:17.992Z,1.43
2018-07-08T16:27:21.302Z,1.60
2018-07-08T16:32:24.705Z,2.67
2018-07-08T16:37:28.134Z,1.23
2018-07-08T16:42:31.604Z,1.30
2018-07-08T16:47:35.190Z,1.20
2018-07-08T16:52:38.702Z,1.20
2018-07-08T16:57:42.197Z,1.50
2018-07-08T17:02:45.873Z,1.10
2018-07-08T17:07:49.263Z,1.47
2018-07-08T17:12:52.741Z,1.00
2018-07-08T17:17:56.181Z,1.13
2018-07-08T17:22:59.566Z,1.30
2018-07-08T17:28:03.589Z,1.00
2018-07-08T17:33:06.983Z,1.00
2018-07-08T17:38:10.763Z,1.00
2018-07-08T17:43:14.090Z,1.03
2018-07-08T17:48:17.429Z,0.80
2018-07-08T17:53:20.774Z,0.80
2018-07-08T17:58:24.666Z,1.07
2018-07-08T18:03:28.044Z,0.90
2018-07-08T18:08:33.018Z,0.90
2018-07-08T18:13:36.468Z,0.77
2018-07-08T18:18:39.853Z,0.90
2018-07-08T18:23:43.201Z,0.90
2018-07-08T18:28:46.596Z,0.90
2018-07-08T18:33:50.065Z,0.90
2018-07-08T18:38:54.477Z,0.87
2018-07-08T18:43:57.802Z,1.27
2018-07-08T18:49:02.070Z,0.90
2018-07-08T18:54:05.654Z,0.90
2018-07-08T18:59:09.275Z,0.97
2018-07-08T19:04:12.702Z,0.87
2018-07-08T19:09:16.093Z,1.17
2018-07-08T19:14:19.441Z,1.00
2018-07-08T19:19:22.764Z,0.97
2018-07-08T19:24:26.182Z,1.00
2018-07-08T19:29:29.629Z,0.90
2018-07-08T19:34:33.008Z,1.00
2018-07-08T19:39:36.405Z,1.10
2018-07-08T19:44:40.172Z,0.80
2018-07-08T19:49:43.573Z,1.00
2018-07-08T19:54:47.784Z,0.97
2018-07-08T19:59:51.364Z,1.30
2018-07-08T20:04:54.825Z,1.37
2018-07-08T20:09:58.256Z,1.00
2018-07-08T20:15:01.978Z,1.40
2018-07-08T20:20:07.433Z,1.27
2018-07-08T20:25:12.801Z,1.57
2018-07-08T20:30:16.161Z,1.50
2018-07-08T20:35:19.597Z,1.33
2018-07-08T20:40:22.977Z,1.33
2018-07-08T20:45:26.309Z,1.60
2018-07-08T20:50:30.616Z,1.57
2018-07-08T20:55:34.116Z,1.87
2018-07-08T21:00:37.472Z,1.70
2018-07-08T21:05:41.224Z,1.80
2018-07-08T21:10:44.619Z,2.00
2018-07-08T21:15:47.993Z,2.00
2018-07-08T21:20:51.381Z,2.30
2018-07-08T21:25:54.845Z,3.97
2018-07-08T21:30:58.209Z,2.20
2018-07-08T21:36:01.622Z,2.10
2018-07-08T21:41:05.300Z,1.93
2018-07-08T21:46:08.653Z,2.40
2018-07-08T21:51:12.967Z,3.00
2018-07-08T21:56:16.336Z,2.70
2018-07-08T22:01:20.990Z,2.47
2018-07-08T22:06:24.326Z,2.97
2018-07-08T22:11:27.670Z,3.00
2018-07-08T22:16:30.926Z,2.60
2018-07-08T22:21:34.330Z,3.63
2018-07-08T22:26:37.786Z,3.87
2018-07-08T22:31:43.497Z,3.03
2018-07-08T22:36:47.359Z,3.40
2018-07-08T22:41:50.792Z,3.70
2018-07-08T22:46:54.240Z,4.60
2018-07-08T22:51:57.656Z,3.73
2018-07-08T22:57:01.090Z,3.57
2018-07-08T23:02:21.576Z,4.03
2018-07-08T23:07:24.902Z,4.37
2018-07-08T23:12:28.330Z,4.33
2018-07-08T23:17:32.037Z,4.07
2018-07-08T23:22:52.571Z,4.50
2018-07-08T23:27:56.028Z,5.60
2018-07-08T23:32:59.443Z,5.27
2018-07-08T23:38:02.863Z,5.47
2018-07-08T23:43:06.853Z,5.13
2018-07-08T23:48:10.228Z,4.40
2018-07-08T23:53:13.644Z,4.80
2018-07-08T23:58:16.998Z,4.37
